createdAt,value
2019-03-31T00:03:49.875Z,11.97
2019-03-31T00:08:57.343Z,13.30
2019-03-31T00:14:04.828Z,13.05
2019-03-31T00:19:12.202Z,14.03
2019-03-31T00:24:19.757Z,15.25
2019-03-31T00:29:27.042Z,15.20
2019-03-31T00:34:34.473Z,16.20
2019-03-31T00:39:41.744Z,15.83
2019-03-31T00:44:49.092Z,14.10
2019-03-31T00:49:56.269Z,14.33
2019-03-31T00:55:03.724Z,15.05
2019-03-31T01:00:14.334Z,14.13
2019-03-31T01:05:23.409Z,13.70
2019-03-31T01:10:31.952Z,13.45
2019-03-31T01:15:39.562Z,13.58
2019-03-31T01:20:47.073Z,13.13
2019-03-31T01:25:54.868Z,12.60
2019-03-31T01:31:02.825Z,14.03
2019-03-31T01:36:10.364Z,13.18
2019-03-31T01:41:18.100Z,13.08
2019-03-31T01:46:26.387Z,13.95
2019-03-31T01:51:33.797Z,12.50
2019-03-31T01:56:44.597Z,12.93
2019-03-31T02:02:03.286Z,13.72
2019-03-31T02:06:59.327Z,12.98
2019-03-31T02:12:06.756Z,13.00
2019-03-31T02:17:14.218Z,13.78
2019-03-31T02:22:21.574Z,13.60
2019-03-31T02:27:29.863Z,12.73
2019-03-31T02:32:37.203Z,13.18
2019-03-31T02:37:44.623Z,12.20
2019-03-31T02:42:52.142Z,13.00
2019-03-31T02:47:59.568Z,12.78
2019-03-31T02:53:06.988Z,12.33
2019-03-31T02:58:15.109Z,12.05
2019-03-31T03:03:22.721Z,13.38
2019-03-31T03:08:34.074Z,13.35
2019-03-31T03:13:43.811Z,13.15
2019-03-31T03:18:51.752Z,12.25
2019-03-31T03:23:59.232Z,12.70
2019-03-31T03:29:06.763Z,12.50
2019-03-31T03:34:15.186Z,12.60
2019-03-31T03:39:22.520Z,14.10
2019-03-31T03:44:29.871Z,12.63
2019-03-31T03:49:37.227Z,12.40
2019-03-31T03:54:44.650Z,12.53
2019-03-31T03:59:52.022Z,11.80
2019-03-31T04:04:59.503Z,12.47
2019-03-31T04:10:30.495Z,12.47
2019-03-31T04:15:37.672Z,12.58
2019-03-31T04:20:44.903Z,12.58
2019-03-31T04:25:52.256Z,13.10
2019-03-31T04:30:59.774Z,13.25
2019-03-31T04:36:07.333Z,11.75
2019-03-31T04:41:14.811Z,11.28
2019-03-31T04:46:22.229Z,12.10
2019-03-31T04:51:29.644Z,12.33
2019-03-31T04:56:37.048Z,13.65
2019-03-31T05:01:44.449Z,14.20
2019-03-31T05:06:51.622Z,15.23
2019-03-31T05:11:59.063Z,14.28
2019-03-31T05:17:06.520Z,14.07
2019-03-31T05:22:13.803Z,13.15
2019-03-31T05:27:21.245Z,11.97
2019-03-31T05:32:28.595Z,13.38
2019-03-31T05:37:49.914Z,13.93
2019-03-31T05:42:45.070Z,13.58
2019-03-31T05:47:52.424Z,13.70
2019-03-31T05:52:59.854Z,14.35
2019-03-31T05:58:07.278Z,14.45
2019-03-31T06:03:14.662Z,14.18
2019-03-31T06:08:22.109Z,15.83
2019-03-31T06:13:29.517Z,15.83
2019-03-31T06:18:36.887Z,15.32
2019-03-31T06:23:44.718Z,16.07
2019-03-31T06:28:51.934Z,16.20
2019-03-31T06:33:59.287Z,16.57
2019-03-31T06:39:08.683Z,16.35
2019-03-31T06:44:15.879Z,16.82
2019-03-31T06:49:24.377Z,16.97
2019-03-31T06:54:31.737Z,17.35
2019-03-31T06:59:39.150Z,18.40
2019-03-31T07:05:00.272Z,20.77
2019-03-31T07:09:56.266Z,19.80
2019-03-31T07:15:03.878Z,20.72
2019-03-31T07:20:12.729Z,21.12
2019-03-31T07:25:20.267Z,21.50
2019-03-31T07:30:27.753Z,22.82
2019-03-31T07:35:35.165Z,25.10
2019-03-31T07:40:42.629Z,26.12
2019-03-31T07:45:49.971Z,24.85
2019-03-31T07:50:57.236Z,25.95
2019-03-31T07:56:05.667Z,26.12
2019-03-31T08:01:13.052Z,26.52
2019-03-31T08:06:20.389Z,25.92
2019-03-31T08:11:28.190Z,27.00
2019-03-31T08:16:35.668Z,25.52
2019-03-31T08:21:43.003Z,29.23
2019-03-31T08:26:50.343Z,30.02
2019-03-31T08:31:57.611Z,31.35
2019-03-31T08:37:04.962Z,29.75
2019-03-31T08:42:12.472Z,28.65
2019-03-31T08:47:20.020Z,28.62
2019-03-31T08:52:27.513Z,28.90
2019-03-31T08:57:35.887Z,29.37
2019-03-31T09:02:43.250Z,30.25
2019-03-31T09:07:50.518Z,28.17
2019-03-31T09:12:57.886Z,29.32
2019-03-31T09:18:05.312Z,28.85
2019-03-31T09:23:12.747Z,28.87
2019-03-31T09:28:20.289Z,28.77
2019-03-31T09:33:27.669Z,30.75
2019-03-31T09:38:34.962Z,30.32
2019-03-31T09:43:42.405Z,32.33
2019-03-31T09:48:49.923Z,32.30
2019-03-31T09:53:57.408Z,33.83
2019-03-31T09:59:05.452Z,30.23
2019-03-31T10:04:12.976Z,32.15
2019-03-31T10:09:20.506Z,33.60
2019-03-31T10:14:28.102Z,30.77
2019-03-31T10:19:35.599Z,31.02
2019-03-31T10:24:43.174Z,30.85
2019-03-31T10:29:50.489Z,30.82
2019-03-31T10:34:57.830Z,29.15
2019-03-31T10:40:06.397Z,30.35
2019-03-31T10:45:14.127Z,33.02
2019-03-31T10:50:21.684Z,33.05
2019-03-31T10:55:29.165Z,29.23
2019-03-31T11:00:38.324Z,29.12
2019-03-31T11:05:46.110Z,29.60
2019-03-31T11:10:53.485Z,28.80
2019-03-31T11:16:00.903Z,28.70
2019-03-31T11:21:14.398Z,29.27
2019-03-31T11:26:21.785Z,28.47
2019-03-31T11:31:29.188Z,29.98
2019-03-31T11:36:38.322Z,27.60
2019-03-31T11:41:45.709Z,23.35
2019-03-31T11:46:53.240Z,20.90
2019-03-31T11:52:00.608Z,18.07
2019-03-31T11:57:07.980Z,17.90
2019-03-31T12:02:26.518Z,17.77
2019-03-31T12:07:28.381Z,21.48
2019-03-31T12:12:33.416Z,21.68
2019-03-31T12:17:42.540Z,21.30
2019-03-31T12:22:51.201Z,20.60
2019-03-31T12:27:58.417Z,17.55
2019-03-31T12:33:05.788Z,20.32
2019-03-31T12:38:13.125Z,18.73
2019-03-31T12:43:20.580Z,17.00
2019-03-31T12:48:31.355Z,13.60
2019-03-31T12:53:38.168Z,12.37
2019-03-31T12:58:45.601Z,14.10
2019-03-31T13:03:53.342Z,15.60
2019-03-31T13:09:00.895Z,17.10
2019-03-31T13:14:09.633Z,18.90
2019-03-31T13:19:17.167Z,19.25
2019-03-31T13:24:24.562Z,19.50
2019-03-31T13:29:32.049Z,20.25
2019-03-31T13:34:39.437Z,18.32
2019-03-31T13:39:46.748Z,18.55
2019-03-31T13:44:54.187Z,20.70
2019-03-31T13:50:01.673Z,19.65
2019-03-31T13:55:10.166Z,21.12
2019-03-31T14:00:34.963Z,23.60
2019-03-31T14:05:42.384Z,25.20
2019-03-31T14:10:50.756Z,25.00
2019-03-31T14:15:58.193Z,25.00
2019-03-31T14:21:05.601Z,25.00
2019-03-31T14:26:12.947Z,30.92
2019-03-31T14:31:20.400Z,28.70
2019-03-31T14:36:27.855Z,27.85
2019-03-31T14:41:35.236Z,27.30
2019-03-31T14:46:42.589Z,25.52
2019-03-31T14:51:49.958Z,25.52
2019-03-31T14:56:57.399Z,25.75
2019-03-31T15:02:04.766Z,26.62
2019-03-31T15:07:12.210Z,26.52
2019-03-31T15:12:20.167Z,25.08
2019-03-31T15:17:27.579Z,23.92
2019-03-31T15:22:35.494Z,25.82
2019-03-31T15:27:42.711Z,25.90
2019-03-31T15:32:50.066Z,24.75
2019-03-31T15:37:57.552Z,24.72
2019-03-31T15:43:05.088Z,25.88
2019-03-31T15:48:12.698Z,23.02
2019-03-31T15:53:20.515Z,23.77
2019-03-31T15:58:28.187Z,23.05
2019-03-31T16:03:38.667Z,22.93
2019-03-31T16:08:45.328Z,22.98
2019-03-31T16:13:51.968Z,22.98
2019-03-31T16:18:58.642Z,23.98
2019-03-31T16:24:05.396Z,24.18
2019-03-31T16:29:12.135Z,23.77
2019-03-31T16:34:18.763Z,23.90
2019-03-31T16:39:37.095Z,23.60
2019-03-31T16:44:35.050Z,23.00
2019-03-31T16:49:41.683Z,24.37
2019-03-31T16:54:48.316Z,23.07
2019-03-31T16:59:54.881Z,22.73
2019-03-31T17:05:01.435Z,23.02
2019-03-31T17:10:09.391Z,22.50
2019-03-31T17:15:16.406Z,19.87
2019-03-31T17:20:23.278Z,19.23
2019-03-31T17:25:31.977Z,21.12
2019-03-31T17:30:38.595Z,19.48
2019-03-31T17:35:45.074Z,16.35
2019-03-31T17:40:51.690Z,15.03
2019-03-31T17:45:58.292Z,12.15
2019-03-31T17:51:04.951Z,10.20
2019-03-31T17:56:11.489Z,9.58
2019-03-31T18:01:18.043Z,9.33
2019-03-31T18:06:24.698Z,8.85
2019-03-31T18:11:31.240Z,8.90
2019-03-31T18:16:37.874Z,8.75
2019-03-31T18:21:44.530Z,7.78
2019-03-31T18:26:50.995Z,7.80
2019-03-31T18:31:57.523Z,8.33
2019-03-31T18:37:05.048Z,7.08
2019-03-31T18:42:11.672Z,7.80
2019-03-31T18:47:18.297Z,7.00
2019-03-31T18:52:24.912Z,7.33
2019-03-31T18:57:53.242Z,6.85
2019-03-31T19:03:28.166Z,6.72
2019-03-31T19:08:47.629Z,6.85
2019-03-31T19:14:12.098Z,6.92
2019-03-31T19:19:37.289Z,6.45
2019-03-31T19:25:15.976Z,7.47
2019-03-31T19:30:33.149Z,6.70
2019-03-31T19:35:54.074Z,6.87
2019-03-31T19:41:25.391Z,6.50
2019-03-31T19:46:50.744Z,6.47
2019-03-31T19:52:15.469Z,5.45
2019-03-31T19:57:49.755Z,6.03
2019-03-31T20:03:13.904Z,6.10
2019-03-31T20:08:42.481Z,6.67
2019-03-31T20:14:07.988Z,5.85
2019-03-31T20:19:39.319Z,6.40
2019-03-31T20:24:53.881Z,5.97
2019-03-31T20:30:10.182Z,5.35
2019-03-31T20:35:35.706Z,5.30
2019-03-31T20:41:13.519Z,5.70
2019-03-31T20:46:20.147Z,5.55
2019-03-31T20:51:26.834Z,5.17
2019-03-31T20:56:33.485Z,5.40
2019-03-31T21:01:40.142Z,5.00
2019-03-31T21:06:46.605Z,4.97
2019-03-31T21:11:53.124Z,5.72
2019-03-31T21:16:59.645Z,5.75
2019-03-31T21:22:06.202Z,6.25
2019-03-31T21:27:12.603Z,5.40
2019-03-31T21:32:19.096Z,5.50
2019-03-31T21:37:25.638Z,5.83
2019-03-31T21:42:32.178Z,5.50
2019-03-31T21:47:38.704Z,5.70
2019-03-31T21:52:45.159Z,6.37
2019-03-31T21:57:51.803Z,6.05
2019-03-31T22:02:58.409Z,5.97
2019-03-31T22:08:04.947Z,5.67
2019-03-31T22:13:11.478Z,5.47
2019-03-31T22:18:18.076Z,5.10
2019-03-31T22:23:24.679Z,5.45
2019-03-31T22:28:31.315Z,4.40
2019-03-31T22:33:37.910Z,4.17
2019-03-31T22:38:44.530Z,4.25
2019-03-31T22:43:51.320Z,4.10
2019-03-31T22:48:57.805Z,4.75
2019-03-31T22:54:04.459Z,4.40
2019-03-31T22:59:10.987Z,3.92
2019-03-31T23:04:17.604Z,4.15
2019-03-31T23:09:24.166Z,4.28
2019-03-31T23:14:30.783Z,4.00
2019-03-31T23:19:37.342Z,3.75
2019-03-31T23:24:43.902Z,3.45
2019-03-31T23:29:50.344Z,3.02
2019-03-31T23:34:56.963Z,3.00
2019-03-31T23:40:03.513Z,3.62
2019-03-31T23:45:10.323Z,2.37
2019-03-31T23:50:18.039Z,2.45
2019-03-31T23:55:24.584Z,2.30
